Time;durP1;ratioP1;P1;durP2;ratioP2;P2;SDS_P1;SDS_P2;PMS_P1;PMS_P2;Temp;Humidity;BMP_temperature;BMP_pressure;BME280_temperature;BME280_humidity;BME280_pressure;Samples;Min_cycle;Max_cycle;Signal;HPM_P1;HPM_P2
2024/03/16 00:00:09;;;;;;;9.87;8.97;;;;;;;;;;6124505;23;20148;-82
2024/03/16 00:02:39;;;;;;;10.10;8.90;;;;;;;;;;6125016;23;20166;-83
2024/03/16 00:05:06;;;;;;;9.50;8.60;;;;;;;;;;6098551;23;20168;-84
2024/03/16 00:07:34;;;;;;;9.77;8.50;;;;;;;;;;6124503;23;20193;-83
2024/03/16 00:10:01;;;;;;;9.70;8.77;;;;;;;;;;6124042;23;20195;-82
2024/03/16 00:12:29;;;;;;;9.63;8.67;;;;;;;;;;6122907;23;20168;-84
2024/03/16 00:14:58;;;;;;;9.70;8.73;;;;;;;;;;6123062;23;20234;-84
2024/03/16 00:17:25;;;;;;;9.77;8.90;;;;;;;;;;6123215;23;20192;-83
2024/03/16 00:19:52;;;;;;;10.63;9.63;;;;;;;;;;6123627;23;20223;-84
2024/03/16 00:22:20;;;;;;;10.10;8.80;;;;;;;;;;6099779;23;20179;-84
2024/03/16 00:24:47;;;;;;;9.70;8.80;;;;;;;;;;6124980;23;20167;-84
2024/03/16 00:27:14;;;;;;;10.00;9.00;;;;;;;;;;6123547;23;20175;-85
2024/03/16 00:29:42;;;;;;;11.20;9.87;;;;;;;;;;6123060;23;20176;-84
2024/03/16 00:32:09;;;;;;;11.80;9.57;;;;;;;;;;6123145;23;20239;-82
2024/03/16 00:34:36;;;;;;;9.87;9.03;;;;;;;;;;6124350;23;20184;-83
2024/03/16 00:37:06;;;;;;;9.83;8.83;;;;;;;;;;6123069;23;20203;-84
2024/03/16 00:39:33;;;;;;;10.40;9.40;;;;;;;;;;6099114;23;20186;-83
2024/03/16 00:42:01;;;;;;;10.10;9.20;;;;;;;;;;6123173;23;20187;-84
2024/03/16 00:44:28;;;;;;;10.00;9.00;;;;;;;;;;6124242;23;20622;-83
2024/03/16 00:46:55;;;;;;;10.10;9.10;;;;;;;;;;6123274;23;20559;-84
2024/03/16 00:49:22;;;;;;;10.07;9.07;;;;;;;;;;6123072;23;20172;-82
2024/03/16 00:51:50;;;;;;;10.47;9.03;;;;;;;;;;6122942;23;20182;-84
2024/03/16 00:54:17;;;;;;;9.97;8.97;;;;;;;;;;6124225;23;20188;-83
2024/03/16 00:56:48;;;;;;;10.40;9.30;;;;;;;;;;6123197;23;20695;-82
2024/03/16 00:59:15;;;;;;;10.30;9.40;;;;;;;;;;6124183;23;20183;-83
2024/03/16 01:01:43;;;;;;;11.50;10.30;;;;;;;;;;6124374;23;20175;-82
2024/03/16 01:04:10;;;;;;;11.03;9.90;;;;;;;;;;6098829;23;20178;-83
2024/03/16 01:06:38;;;;;;;10.60;9.60;;;;;;;;;;6124540;23;20242;-85
2024/03/16 01:09:06;;;;;;;10.60;9.60;;;;;;;;;;6122979;23;20203;-82
2024/03/16 01:11:33;;;;;;;10.37;9.33;;;;;;;;;;6123164;23;20607;-84
2024/03/16 01:14:00;;;;;;;11.40;10.27;;;;;;;;;;6124078;23;20188;-84
2024/03/16 01:16:28;;;;;;;11.60;10.50;;;;;;;;;;6122943;23;20160;-82
2024/03/16 01:18:56;;;;;;;12.23;10.53;;;;;;;;;;6122857;23;20168;-83
2024/03/16 01:21:23;;;;;;;10.80;9.70;;;;;;;;;;6098570;23;20627;-84
2024/03/16 01:23:51;;;;;;;11.43;9.87;;;;;;;;;;6122659;23;20163;-83
2024/03/16 01:26:18;;;;;;;10.50;9.50;;;;;;;;;;6123892;23;20170;-85
2024/03/16 01:28:47;;;;;;;10.67;9.67;;;;;;;;;;6122411;23;20191;-83
2024/03/16 01:31:14;;;;;;;9.93;8.93;;;;;;;;;;6097903;23;20211;-86
2024/03/16 01:33:41;;;;;;;12.10;9.67;;;;;;;;;;6098945;23;20542;-84
2024/03/16 01:36:09;;;;;;;10.50;9.47;;;;;;;;;;6124098;23;20203;-83
2024/03/16 01:38:36;;;;;;;9.77;8.87;;;;;;;;;;6098228;23;20175;-84
2024/03/16 01:41:04;;;;;;;11.33;10.10;;;;;;;;;;6123868;23;20167;-84
2024/03/16 01:43:31;;;;;;;10.93;9.87;;;;;;;;;;6124202;23;20175;-82
2024/03/16 01:45:59;;;;;;;10.60;9.57;;;;;;;;;;6122623;23;20175;-83
2024/03/16 01:48:26;;;;;;;10.53;9.43;;;;;;;;;;6122355;23;20706;-83
2024/03/16 01:50:54;;;;;;;10.20;9.20;;;;;;;;;;6097979;23;20182;-83
2024/03/16 01:53:21;;;;;;;10.33;9.30;;;;;;;;;;6122455;23;20160;-84
2024/03/16 01:55:48;;;;;;;10.47;8.70;;;;;;;;;;6121892;23;20192;-83
2024/03/16 01:58:15;;;;;;;8.93;8.10;;;;;;;;;;6122486;23;20176;-84
2024/03/16 02:00:47;;;;;;;9.67;8.77;;;;;;;;;;6123591;23;20283;-83
2024/03/16 02:03:15;;;;;;;8.80;7.90;;;;;;;;;;6123909;23;20155;-83
2024/03/16 02:05:42;;;;;;;8.20;7.50;;;;;;;;;;6098056;23;20238;-83
2024/03/16 02:08:11;;;;;;;9.10;8.20;;;;;;;;;;6122717;23;20255;-82
2024/03/16 02:10:39;;;;;;;7.50;6.80;;;;;;;;;;6123416;23;20191;-85
2024/03/16 02:13:07;;;;;;;8.33;7.43;;;;;;;;;;6123596;23;20176;-83
2024/03/16 02:15:35;;;;;;;7.50;6.80;;;;;;;;;;6122328;23;20184;-82
2024/03/16 02:18:02;;;;;;;8.20;7.40;;;;;;;;;;6098362;23;20176;-85
2024/03/16 02:20:31;;;;;;;7.43;6.63;;;;;;;;;;6098211;23;20598;-82
2024/03/16 02:22:58;;;;;;;7.50;6.80;;;;;;;;;;6124164;23;20258;-83
2024/03/16 02:25:26;;;;;;;7.13;6.53;;;;;;;;;;6123920;23;20239;-83
2024/03/16 02:27:53;;;;;;;7.17;6.47;;;;;;;;;;6122399;23;20179;-83
2024/03/16 02:30:21;;;;;;;6.97;6.37;;;;;;;;;;6098181;23;20254;-83
2024/03/16 02:32:48;;;;;;;7.20;6.10;;;;;;;;;;6123556;23;20186;-83
2024/03/16 02:35:15;;;;;;;7.20;6.60;;;;;;;;;;6123577;23;20211;-83
2024/03/16 02:37:43;;;;;;;8.33;6.80;;;;;;;;;;6122392;23;20263;-83
2024/03/16 02:40:13;;;;;;;7.77;6.97;;;;;;;;;;6123360;23;20164;-85
2024/03/16 02:42:41;;;;;;;8.60;7.50;;;;;;;;;;6125989;23;20168;-83
2024/03/16 02:45:09;;;;;;;7.97;7.20;;;;;;;;;;6125870;23;20174;-84
2024/03/16 02:47:38;;;;;;;8.60;7.80;;;;;;;;;;6125667;23;20168;-82
2024/03/16 02:50:06;;;;;;;8.40;7.40;;;;;;;;;;6099997;23;20164;-82
2024/03/16 02:52:34;;;;;;;8.83;7.20;;;;;;;;;;6124349;23;20179;-83
2024/03/16 02:55:01;;;;;;;7.83;7.13;;;;;;;;;;6123814;23;20183;-83
2024/03/16 02:57:30;;;;;;;7.30;6.70;;;;;;;;;;6123652;23;20168;-83
2024/03/16 02:59:57;;;;;;;7.00;6.40;;;;;;;;;;6123541;23;20176;-83
2024/03/16 03:02:26;;;;;;;7.33;6.63;;;;;;;;;;6123873;23;20207;-83
2024/03/16 03:04:57;;;;;;;8.97;6.90;;;;;;;;;;6100199;23;20164;-82
2024/03/16 03:07:25;;;;;;;7.70;6.90;;;;;;;;;;6099555;23;20178;-83
2024/03/16 03:09:53;;;;;;;7.77;6.97;;;;;;;;;;6099514;23;20198;-82
2024/03/16 03:12:20;;;;;;;7.20;6.50;;;;;;;;;;6123577;23;20167;-82
2024/03/16 03:14:47;;;;;;;7.60;6.90;;;;;;;;;;6123267;23;20219;-83
2024/03/16 03:17:14;;;;;;;7.50;6.80;;;;;;;;;;6123518;23;20214;-83
2024/03/16 03:19:42;;;;;;;7.80;7.10;;;;;;;;;;6099428;23;20179;-83
2024/03/16 03:22:12;;;;;;;7.97;7.17;;;;;;;;;;6124994;23;20183;-82
2024/03/16 03:24:42;;;;;;;7.53;6.80;;;;;;;;;;6125689;23;20510;-84
2024/03/16 03:27:09;;;;;;;7.37;6.67;;;;;;;;;;6099234;23;20175;-83
2024/03/16 03:29:37;;;;;;;7.87;7.07;;;;;;;;;;6123467;23;20198;-85
2024/03/16 03:32:04;;;;;;;7.60;6.90;;;;;;;;;;6122937;23;20203;-81
2024/03/16 03:34:31;;;;;;;7.60;6.90;;;;;;;;;;6124908;23;20196;-83
2024/03/16 03:36:59;;;;;;;8.17;7.20;;;;;;;;;;6123299;23;20243;-84
2024/03/16 03:39:26;;;;;;;7.30;6.60;;;;;;;;;;6099463;23;20231;-84
2024/03/16 03:41:54;;;;;;;7.97;6.83;;;;;;;;;;6123185;23;20176;-84
2024/03/16 03:44:23;;;;;;;7.97;7.13;;;;;;;;;;6123537;23;20622;-85
2024/03/16 03:46:51;;;;;;;7.40;6.70;;;;;;;;;;6125890;23;20202;-86
2024/03/16 03:49:39;;;;;;;7.53;6.80;;;;;;;;;;6125265;23;20170;-86
2024/03/16 03:52:06;;;;;;;6.90;6.30;;;;;;;;;;6123577;23;20218;-86
2024/03/16 03:54:36;;;;;;;6.63;6.03;;;;;;;;;;6124436;23;20173;-85
2024/03/16 03:57:05;;;;;;;6.60;6.00;;;;;;;;;;6123930;23;20191;-85
2024/03/16 03:59:33;;;;;;;6.93;6.20;;;;;;;;;;6123806;23;20175;-85
2024/03/16 04:02:00;;;;;;;8.03;6.10;;;;;;;;;;6123868;23;20167;-86
2024/03/16 04:04:27;;;;;;;6.70;6.00;;;;;;;;;;6125238;23;20626;-85
2024/03/16 04:06:55;;;;;;;6.43;5.87;;;;;;;;;;6123795;23;20187;-85
2024/03/16 04:09:25;;;;;;;6.50;5.90;;;;;;;;;;6099602;23;20167;-85
2024/03/16 04:11:52;;;;;;;6.93;5.83;;;;;;;;;;6123657;23;20168;-86
2024/03/16 04:14:19;;;;;;;6.60;6.00;;;;;;;;;;6123747;23;20170;-85
2024/03/16 04:16:48;;;;;;;6.23;5.67;;;;;;;;;;6123422;23;20202;-85
2024/03/16 04:19:16;;;;;;;6.80;6.10;;;;;;;;;;6123515;23;20180;-85
2024/03/16 04:21:43;;;;;;;6.23;5.67;;;;;;;;;;6123411;23;20191;-85
2024/03/16 04:24:11;;;;;;;7.50;6.07;;;;;;;;;;6123663;23;20262;-86
2024/03/16 04:26:38;;;;;;;6.90;6.13;;;;;;;;;;6123511;23;20247;-86
2024/03/16 04:29:05;;;;;;;6.50;5.90;;;;;;;;;;6099155;23;20258;-86
2024/03/16 04:31:33;;;;;;;6.67;6.07;;;;;;;;;;6145616;23;20195;-86
2024/03/16 04:34:00;;;;;;;6.60;6.00;;;;;;;;;;6128317;23;20171;-84
2024/03/16 04:36:27;;;;;;;6.27;5.73;;;;;;;;;;6128503;23;20207;-85
2024/03/16 04:38:54;;;;;;;6.03;5.43;;;;;;;;;;6104674;23;20653;-84
2024/03/16 04:41:22;;;;;;;6.27;5.67;;;;;;;;;;6128436;23;20193;-86
2024/03/16 04:43:51;;;;;;;6.60;5.97;;;;;;;;;;6128304;23;20171;-85
2024/03/16 04:46:18;;;;;;;6.17;5.57;;;;;;;;;;6128046;23;20178;-85
2024/03/16 04:48:45;;;;;;;6.27;5.67;;;;;;;;;;6104103;23;20175;-86
2024/03/16 04:51:14;;;;;;;6.73;5.50;;;;;;;;;;6128406;23;20254;-85
2024/03/16 04:53:42;;;;;;;5.70;5.17;;;;;;;;;;6103898;23;20202;-86
2024/03/16 04:56:09;;;;;;;6.53;5.63;;;;;;;;;;6127533;23;20241;-84
2024/03/16 04:58:37;;;;;;;5.80;5.30;;;;;;;;;;6127713;23;20175;-86
2024/03/16 05:01:05;;;;;;;5.70;5.20;;;;;;;;;;6103522;23;20171;-84
2024/03/16 05:03:32;;;;;;;6.80;5.23;;;;;;;;;;6127561;23;20175;-85
2024/03/16 05:06:00;;;;;;;5.83;5.33;;;;;;;;;;6127472;23;20178;-86
2024/03/16 05:08:27;;;;;;;7.17;5.60;;;;;;;;;;6103411;23;20249;-85
2024/03/16 05:10:54;;;;;;;5.93;5.07;;;;;;;;;;6153803;23;20170;-84
2024/03/16 05:13:21;;;;;;;5.37;4.90;;;;;;;;;;6153951;23;20170;-86
2024/03/16 05:15:51;;;;;;;5.57;5.03;;;;;;;;;;6127688;23;20191;-85
2024/03/16 05:18:18;;;;;;;6.07;5.50;;;;;;;;;;6103615;23;20175;-85
2024/03/16 05:20:46;;;;;;;5.57;5.07;;;;;;;;;;6127871;23;20220;-84
2024/03/16 05:23:14;;;;;;;6.10;5.17;;;;;;;;;;6127810;23;20163;-85
2024/03/16 05:25:47;;;;;;;5.70;5.20;;;;;;;;;;6127642;23;20175;-85
2024/03/16 05:28:17;;;;;;;5.83;5.23;;;;;;;;;;6127950;23;20167;-86
2024/03/16 05:30:45;;;;;;;7.27;5.00;;;;;;;;;;6127483;23;20199;-86
2024/03/16 05:33:12;;;;;;;5.70;5.10;;;;;;;;;;6103347;23;20210;-84
2024/03/16 05:35:40;;;;;;;7.10;4.77;;;;;;;;;;6127897;23;20209;-84
2024/03/16 05:38:07;;;;;;;5.27;4.77;;;;;;;;;;6127934;23;20174;-85
2024/03/16 05:40:35;;;;;;;7.17;4.97;;;;;;;;;;6127669;23;20286;-85
2024/03/16 05:43:03;;;;;;;6.77;5.37;;;;;;;;;;6127500;23;20171;-84
2024/03/16 05:45:30;;;;;;;5.87;5.27;;;;;;;;;;6103206;23;20241;-86
2024/03/16 05:47:57;;;;;;;6.00;5.20;;;;;;;;;;6103404;23;20183;-85
2024/03/16 05:50:25;;;;;;;5.83;5.23;;;;;;;;;;6127858;23;20250;-85
2024/03/16 05:52:57;;;;;;;5.27;4.77;;;;;;;;;;6103297;23;20614;-85
2024/03/16 05:55:26;;;;;;;5.90;5.37;;;;;;;;;;6127283;23;20190;-85
2024/03/16 05:57:53;;;;;;;6.00;5.40;;;;;;;;;;6153257;23;20681;-85
2024/03/16 06:00:22;;;;;;;5.90;5.30;;;;;;;;;;6127282;23;20171;-85
2024/03/16 06:02:49;;;;;;;5.67;5.17;;;;;;;;;;6153322;23;20218;-85
2024/03/16 06:05:18;;;;;;;6.73;5.10;;;;;;;;;;6127391;23;20249;-84
2024/03/16 06:07:45;;;;;;;5.30;4.80;;;;;;;;;;6103394;23;20258;-83
2024/03/16 06:10:13;;;;;;;5.93;5.00;;;;;;;;;;6103108;23;20174;-85
2024/03/16 06:12:40;;;;;;;5.30;4.57;;;;;;;;;;6103411;23;20215;-85
2024/03/16 06:15:07;;;;;;;4.90;4.40;;;;;;;;;;6104428;23;20174;-85
2024/03/16 06:17:36;;;;;;;5.10;4.60;;;;;;;;;;6129915;23;20638;-85
2024/03/16 06:20:05;;;;;;;5.27;4.20;;;;;;;;;;6157781;23;20245;-87
2024/03/16 06:22:32;;;;;;;4.77;4.33;;;;;;;;;;6157267;23;20170;-86
2024/03/16 06:25:00;;;;;;;4.93;4.37;;;;;;;;;;6107958;23;20170;-84
2024/03/16 06:27:27;;;;;;;4.73;4.13;;;;;;;;;;6106846;23;20162;-85
2024/03/16 06:29:55;;;;;;;4.43;4.03;;;;;;;;;;6106436;23;20174;-84
2024/03/16 06:32:22;;;;;;;4.90;4.30;;;;;;;;;;6105351;23;20195;-84
2024/03/16 06:34:50;;;;;;;4.73;4.33;;;;;;;;;;6154148;23;20167;-82
2024/03/16 06:37:17;;;;;;;4.43;4.03;;;;;;;;;;6126725;23;20245;-83
2024/03/16 06:39:46;;;;;;;4.83;3.90;;;;;;;;;;6104376;23;20175;-84
2024/03/16 06:42:13;;;;;;;5.00;4.00;;;;;;;;;;6154011;23;20242;-81
2024/03/16 06:44:40;;;;;;;4.13;3.70;;;;;;;;;;6153849;23;20693;-82
2024/03/16 06:47:07;;;;;;;4.10;3.30;;;;;;;;;;6154369;23;20176;-83
2024/03/16 06:49:34;;;;;;;3.50;3.20;;;;;;;;;;6154130;23;20167;-82
2024/03/16 06:52:01;;;;;;;3.87;3.47;;;;;;;;;;6103789;23;20175;-82
2024/03/16 06:54:28;;;;;;;5.77;3.50;;;;;;;;;;6128117;23;20171;-82
2024/03/16 06:56:55;;;;;;;4.77;3.23;;;;;;;;;;6153400;23;20825;-82
2024/03/16 06:59:22;;;;;;;4.17;3.00;;;;;;;;;;6154379;23;20167;-81
2024/03/16 07:01:49;;;;;;;3.63;2.67;;;;;;;;;;6154120;23;20169;-83
2024/03/16 07:04:17;;;;;;;3.23;2.80;;;;;;;;;;6154424;23;20242;-83
2024/03/16 07:06:44;;;;;;;4.63;2.70;;;;;;;;;;6127804;23;20169;-82
2024/03/16 07:09:13;;;;;;;2.03;1.73;;;;;;;;;;6126940;23;20167;-85
2024/03/16 07:11:40;;;;;;;2.63;1.80;;;;;;;;;;6127436;23;20183;-83
2024/03/16 07:14:12;;;;;;;1.90;1.70;;;;;;;;;;6153849;23;20156;-83
2024/03/16 07:16:40;;;;;;;3.63;1.40;;;;;;;;;;6153447;23;20188;-83
2024/03/16 07:19:07;;;;;;;1.57;1.03;;;;;;;;;;6153971;23;20165;-84
2024/03/16 07:21:35;;;;;;;1.90;1.00;;;;;;;;;;6154036;23;20243;-84
2024/03/16 07:24:03;;;;;;;1.97;1.00;;;;;;;;;;6154233;23;20165;-83
2024/03/16 07:26:30;;;;;;;1.63;0.97;;;;;;;;;;6127656;23;20257;-83
2024/03/16 07:28:58;;;;;;;2.50;1.00;;;;;;;;;;6127819;23;20181;-83
2024/03/16 07:31:26;;;;;;;2.63;1.00;;;;;;;;;;6153596;23;20208;-84
2024/03/16 07:33:53;;;;;;;2.03;1.03;;;;;;;;;;6127705;23;20198;-82
2024/03/16 07:36:21;;;;;;;1.33;0.90;;;;;;;;;;6128071;23;20205;-83
2024/03/16 07:38:48;;;;;;;0.97;0.73;;;;;;;;;;6128237;23;20162;-84
2024/03/16 07:41:15;;;;;;;0.97;0.80;;;;;;;;;;6128145;23;20166;-82
2024/03/16 07:43:44;;;;;;;1.63;0.90;;;;;;;;;;6154037;23;20222;-82
2024/03/16 07:46:11;;;;;;;0.93;0.73;;;;;;;;;;6153842;23;20178;-82
2024/03/16 07:48:38;;;;;;;2.00;0.80;;;;;;;;;;6154121;23;20163;-85
2024/03/16 07:51:06;;;;;;;1.07;0.80;;;;;;;;;;6153524;23;20188;-83
2024/03/16 07:53:33;;;;;;;1.00;0.73;;;;;;;;;;6103722;23;20612;-83
2024/03/16 07:56:04;;;;;;;1.67;1.20;;;;;;;;;;6153474;23;20197;-83
2024/03/16 07:58:32;;;;;;;1.20;0.90;;;;;;;;;;6127825;23;20233;-83
2024/03/16 08:00:59;;;;;;;2.47;1.10;;;;;;;;;;6153474;23;20170;-84
2024/03/16 08:03:27;;;;;;;3.23;0.80;;;;;;;;;;6153788;23;20177;-83
2024/03/16 08:05:54;;;;;;;1.87;0.80;;;;;;;;;;6153283;23;20175;-82
2024/03/16 08:08:22;;;;;;;1.13;0.83;;;;;;;;;;6153796;23;20178;-84
2024/03/16 08:10:50;;;;;;;0.70;0.70;;;;;;;;;;6153472;23;20225;-82
2024/03/16 08:13:17;;;;;;;0.87;0.87;;;;;;;;;;6153383;23;20191;-83
2024/03/16 08:15:45;;;;;;;1.17;0.50;;;;;;;;;;6153361;23;20261;-83
2024/03/16 08:18:12;;;;;;;1.57;0.53;;;;;;;;;;6152572;23;20165;-83
2024/03/16 08:20:39;;;;;;;0.40;0.40;;;;;;;;;;6125981;23;20246;-82
2024/03/16 08:23:07;;;;;;;1.23;0.50;;;;;;;;;;6127831;23;20616;-81
2024/03/16 08:25:34;;;;;;;0.90;0.40;;;;;;;;;;6103613;23;20175;-83
2024/03/16 08:28:01;;;;;;;1.03;0.50;;;;;;;;;;6153358;23;20197;-83
2024/03/16 08:30:29;;;;;;;1.23;0.40;;;;;;;;;;6152949;23;20198;-82
2024/03/16 08:32:56;;;;;;;0.90;0.50;;;;;;;;;;6127115;23;20199;-83
2024/03/16 08:35:25;;;;;;;0.40;0.40;;;;;;;;;;6126615;23;20195;-83
2024/03/16 08:37:53;;;;;;;1.53;0.97;;;;;;;;;;6149703;23;20249;-83
2024/03/16 08:40:21;;;;;;;1.40;0.70;;;;;;;;;;6151579;23;20195;-84
2024/03/16 08:42:51;;;;;;;0.73;0.57;;;;;;;;;;6124369;23;20230;-84
2024/03/16 08:45:19;;;;;;;0.30;0.30;;;;;;;;;;6151182;23;20175;-83
2024/03/16 08:47:46;;;;;;;1.27;0.40;;;;;;;;;;6150247;23;20167;-82
2024/03/16 08:50:13;;;;;;;0.20;0.20;;;;;;;;;;6124492;23;20174;-82
2024/03/16 08:52:43;;;;;;;0.40;0.40;;;;;;;;;;6150873;23;20159;-83
2024/03/16 08:55:13;;;;;;;0.97;0.50;;;;;;;;;;6125247;23;20171;-82
2024/03/16 08:57:41;;;;;;;0.67;0.60;;;;;;;;;;6151296;23;20187;-84
2024/03/16 09:00:14;;;;;;;0.40;0.30;;;;;;;;;;6126572;23;20271;-83
2024/03/16 09:02:42;;;;;;;0.30;0.20;;;;;;;;;;6125593;23;20171;-83
2024/03/16 09:05:10;;;;;;;0.20;0.20;;;;;;;;;;6153029;23;20238;-83
2024/03/16 09:07:39;;;;;;;0.20;0.20;;;;;;;;;;6127360;23;20229;-82
2024/03/16 09:10:07;;;;;;;0.23;0.23;;;;;;;;;;6153297;23;20163;-81
2024/03/16 09:12:35;;;;;;;0.30;0.20;;;;;;;;;;6103148;23;20171;-82
2024/03/16 09:15:06;;;;;;;0.20;0.10;;;;;;;;;;6127407;23;20673;-82
2024/03/16 09:17:33;;;;;;;0.30;0.20;;;;;;;;;;6152951;23;20187;-82
2024/03/16 09:20:10;;;;;;;1.67;0.50;;;;;;;;;;6153545;23;20191;-82
2024/03/16 09:22:38;;;;;;;0.20;0.20;;;;;;;;;;6127878;23;20194;-83
2024/03/16 09:25:06;;;;;;;1.37;0.30;;;;;;;;;;6153472;23;20191;-82
2024/03/16 09:27:33;;;;;;;1.50;0.20;;;;;;;;;;6152924;23;20176;-82
2024/03/16 09:30:01;;;;;;;2.20;0.40;;;;;;;;;;6127395;23;20173;-82
2024/03/16 09:32:28;;;;;;;1.13;0.30;;;;;;;;;;6153846;23;20234;-84
2024/03/16 09:34:55;;;;;;;1.20;0.30;;;;;;;;;;6127489;23;20168;-83
2024/03/16 09:37:23;;;;;;;0.50;0.30;;;;;;;;;;6127434;23;20230;-82
2024/03/16 09:39:50;;;;;;;2.83;2.63;;;;;;;;;;6127227;23;20197;-82
2024/03/16 09:42:17;;;;;;;0.70;0.40;;;;;;;;;;6151819;23;20189;-83
2024/03/16 09:44:45;;;;;;;0.20;0.20;;;;;;;;;;6127105;23;20172;-82
2024/03/16 09:47:13;;;;;;;0.27;0.20;;;;;;;;;;6102829;23;20172;-83
2024/03/16 09:49:41;;;;;;;0.17;0.17;;;;;;;;;;6102942;23;20242;-81
2024/03/16 09:52:10;;;;;;;1.53;0.30;;;;;;;;;;6103092;23;20172;-82
2024/03/16 09:54:39;;;;;;;0.60;0.30;;;;;;;;;;6103061;23;20173;-81
2024/03/16 09:57:12;;;;;;;0.57;0.20;;;;;;;;;;6126946;23;20194;-82
2024/03/16 09:59:38;;;;;;;0.60;0.20;;;;;;;;;;6103116;23;20238;-82
2024/03/16 10:02:10;;;;;;;1.40;0.40;;;;;;;;;;6126943;23;20178;-83
2024/03/16 10:04:36;;;;;;;0.57;0.30;;;;;;;;;;6101064;23;20155;-83
2024/03/16 10:07:02;;;;;;;0.27;0.20;;;;;;;;;;6127088;23;20636;-83
2024/03/16 10:09:28;;;;;;;1.93;0.70;;;;;;;;;;6127199;23;20166;-82
2024/03/16 10:12:07;;;;;;;0.90;0.23;;;;;;;;;;6126830;23;20163;-83
2024/03/16 10:14:33;;;;;;;0.50;0.23;;;;;;;;;;6078517;23;20171;-82
2024/03/16 10:17:01;;;;;;;1.33;0.30;;;;;;;;;;6126533;23;20184;-82
2024/03/16 10:19:27;;;;;;;0.83;0.37;;;;;;;;;;6102181;23;20645;-82
2024/03/16 10:21:53;;;;;;;1.07;0.40;;;;;;;;;;6126023;23;20250;-82
2024/03/16 10:24:20;;;;;;;0.57;0.20;;;;;;;;;;6126760;23;20242;-82
2024/03/16 10:26:47;;;;;;;0.40;0.20;;;;;;;;;;6126483;23;20170;-82
2024/03/16 10:29:15;;;;;;;1.30;0.80;;;;;;;;;;6102695;23;20287;-82
2024/03/16 10:31:42;;;;;;;1.20;0.40;;;;;;;;;;6101670;23;20226;-83
2024/03/16 10:34:10;;;;;;;0.33;0.30;;;;;;;;;;6127365;23;20196;-82
2024/03/16 10:36:37;;;;;;;0.83;0.20;;;;;;;;;;6101323;23;20195;-81
2024/03/16 10:39:03;;;;;;;0.33;0.23;;;;;;;;;;6099872;23;20218;-82
2024/03/16 10:41:31;;;;;;;0.70;0.30;;;;;;;;;;6100141;23;20171;-82
2024/03/16 10:43:59;;;;;;;1.03;0.30;;;;;;;;;;6124291;23;20223;-82
2024/03/16 10:46:25;;;;;;;0.63;0.50;;;;;;;;;;6123807;23;20172;-83
2024/03/16 10:48:52;;;;;;;0.70;0.40;;;;;;;;;;6123512;23;20243;-82
2024/03/16 10:51:18;;;;;;;0.60;0.30;;;;;;;;;;6097738;23;20167;-82
2024/03/16 10:53:48;;;;;;;1.57;0.93;;;;;;;;;;6121977;23;20240;-81
2024/03/16 10:56:14;;;;;;;2.70;2.00;;;;;;;;;;6123114;23;20239;-83
2024/03/16 10:58:40;;;;;;;1.20;0.50;;;;;;;;;;6098600;23;20169;-82
2024/03/16 11:01:15;;;;;;;1.07;0.30;;;;;;;;;;6124157;23;20847;-83
2024/03/16 11:03:42;;;;;;;2.40;0.90;;;;;;;;;;6076506;23;20172;-83
2024/03/16 11:06:18;;;;;;;0.70;0.40;;;;;;;;;;6101083;23;20194;-81
2024/03/16 11:08:51;;;;;;;0.80;0.50;;;;;;;;;;6102797;23;20232;-82
2024/03/16 11:11:18;;;;;;;1.37;0.60;;;;;;;;;;6126968;23;20225;-82
2024/03/16 11:14:09;;;;;;;109.33;13.80;;;;;;;;;;6102329;23;20169;-82
2024/03/16 11:16:42;;;;;;;147.93;15.50;;;;;;;;;;6125863;23;20182;-81
2024/03/16 11:19:16;;;;;;;45.63;6.10;;;;;;;;;;6126327;23;20710;-83
2024/03/16 11:21:51;;;;;;;26.80;4.10;;;;;;;;;;6124719;23;20235;-83
2024/03/16 11:24:21;;;;;;;1.03;0.70;;;;;;;;;;6102214;23;20627;-82
2024/03/16 11:26:47;;;;;;;2.63;0.60;;;;;;;;;;6126259;23;20174;-82
2024/03/16 11:29:18;;;;;;;1.80;0.50;;;;;;;;;;6102055;23;20253;-82
2024/03/16 11:31:48;;;;;;;2.50;0.53;;;;;;;;;;6121883;23;20197;-82
2024/03/16 11:34:15;;;;;;;3.00;0.47;;;;;;;;;;6097694;23;20257;-83
2024/03/16 11:36:41;;;;;;;221.00;23.67;;;;;;;;;;6096575;23;20191;-81
2024/03/16 11:39:11;;;;;;;41.33;6.27;;;;;;;;;;6118934;23;20261;-81
2024/03/16 11:41:42;;;;;;;438.80;65.47;;;;;;;;;;6120982;23;20341;-83
2024/03/16 11:44:12;;;;;;;15.70;2.70;;;;;;;;;;6097613;23;20171;-83
2024/03/16 11:46:42;;;;;;;19.50;3.43;;;;;;;;;;6098162;23;20801;-81
2024/03/16 11:49:17;;;;;;;32.27;3.80;;;;;;;;;;6122562;23;20175;-83
2024/03/16 11:51:44;;;;;;;29.07;5.60;;;;;;;;;;6122703;23;20608;-81
2024/03/16 11:54:12;;;;;;;2.40;0.53;;;;;;;;;;6098001;23;20856;-83
2024/03/16 11:56:41;;;;;;;1.73;0.30;;;;;;;;;;6122630;23;20262;-82
2024/03/16 11:59:12;;;;;;;2.37;0.57;;;;;;;;;;6122422;23;20173;-82
2024/03/16 12:01:39;;;;;;;2.50;0.90;;;;;;;;;;6122695;23;20161;-81
2024/03/16 12:04:06;;;;;;;1.03;0.60;;;;;;;;;;6122859;23;20206;-82
2024/03/16 12:06:33;;;;;;;0.97;0.40;;;;;;;;;;6122460;23;20170;-81
2024/03/16 12:08:59;;;;;;;2.87;1.00;;;;;;;;;;6122203;23;20233;-83
2024/03/16 12:11:27;;;;;;;1.03;0.40;;;;;;;;;;6097862;23;20178;-82
2024/03/16 12:14:08;;;;;;;20.80;4.43;;;;;;;;;;6122414;23;20167;-82
2024/03/16 12:16:38;;;;;;;216.07;29.33;;;;;;;;;;6122166;23;20171;-81
2024/03/16 12:19:08;;;;;;;20.63;3.87;;;;;;;;;;6122148;23;20166;-81
2024/03/16 12:21:40;;;;;;;7.27;1.53;;;;;;;;;;6098172;23;20665;-83
2024/03/16 12:24:07;;;;;;;16.80;3.47;;;;;;;;;;6097804;23;20620;-82
2024/03/16 12:26:33;;;;;;;323.80;42.83;;;;;;;;;;6097932;23;20618;-82
2024/03/16 12:29:06;;;;;;;5.47;1.47;;;;;;;;;;6097858;23;20204;-81
2024/03/16 12:31:33;;;;;;;7.53;0.90;;;;;;;;;;6073660;23;20673;-80
2024/03/16 12:34:00;;;;;;;0.47;0.37;;;;;;;;;;6122046;23;20224;-82
2024/03/16 12:36:25;;;;;;;6.33;0.60;;;;;;;;;;6121842;23;20175;-81
2024/03/16 12:38:52;;;;;;;3.60;0.53;;;;;;;;;;6122090;23;20168;-81
2024/03/16 12:41:19;;;;;;;1.10;0.30;;;;;;;;;;6121677;23;20175;-81
2024/03/16 12:43:45;;;;;;;1.27;0.40;;;;;;;;;;6121123;23;20167;-81
2024/03/16 12:46:10;;;;;;;48.90;5.77;;;;;;;;;;6095673;23;20193;-81
2024/03/16 12:48:36;;;;;;;11.53;1.47;;;;;;;;;;6120636;23;20633;-82
2024/03/16 12:51:02;;;;;;;15.60;2.10;;;;;;;;;;6121930;23;20645;-82
2024/03/16 12:53:30;;;;;;;1.07;0.30;;;;;;;;;;6121743;23;20175;-81
2024/03/16 12:55:56;;;;;;;287.83;40.90;;;;;;;;;;6097822;23;20171;-81
2024/03/16 12:58:23;;;;;;;2.50;0.40;;;;;;;;;;6121606;23;20264;-81
2024/03/16 13:00:49;;;;;;;34.47;4.10;;;;;;;;;;6122221;23;20168;-81
2024/03/16 13:03:16;;;;;;;3.80;0.60;;;;;;;;;;6097646;23;20177;-81
2024/03/16 13:05:41;;;;;;;5.03;0.50;;;;;;;;;;6122010;23;20168;-81
2024/03/16 13:08:10;;;;;;;7.13;0.70;;;;;;;;;;6119142;23;20228;-82
2024/03/16 13:10:38;;;;;;;0.87;0.50;;;;;;;;;;6097067;23;20176;-82
2024/03/16 13:13:04;;;;;;;1.23;0.40;;;;;;;;;;6121677;23;20170;-82
2024/03/16 13:15:30;;;;;;;7.80;0.80;;;;;;;;;;6097234;23;20170;-82
2024/03/16 13:17:56;;;;;;;1.43;0.50;;;;;;;;;;6121518;23;20217;-81
2024/03/16 13:20:22;;;;;;;1.67;0.50;;;;;;;;;;6097603;23;20606;-81
2024/03/16 13:22:49;;;;;;;1.13;0.40;;;;;;;;;;6073338;23;20178;-81
2024/03/16 13:25:15;;;;;;;0.87;0.30;;;;;;;;;;6121749;23;20176;-82
2024/03/16 13:27:41;;;;;;;0.87;0.40;;;;;;;;;;6120853;23;20161;-83
2024/03/16 13:30:07;;;;;;;0.50;0.40;;;;;;;;;;6099782;23;20257;-82
2024/03/16 13:32:33;;;;;;;0.87;0.40;;;;;;;;;;6126517;23;20240;-81
2024/03/16 13:34:59;;;;;;;1.40;0.37;;;;;;;;;;6126429;23;20174;-82
2024/03/16 13:37:25;;;;;;;1.00;0.40;;;;;;;;;;6101755;23;20193;-82
2024/03/16 13:39:51;;;;;;;0.60;0.40;;;;;;;;;;6126696;23;20243;-82
2024/03/16 13:42:17;;;;;;;0.90;0.47;;;;;;;;;;6126291;23;20612;-84
2024/03/16 13:44:43;;;;;;;0.80;0.40;;;;;;;;;;6102036;23;20626;-82
2024/03/16 13:47:09;;;;;;;0.53;0.33;;;;;;;;;;6126555;23;20192;-82
2024/03/16 13:49:37;;;;;;;0.70;0.40;;;;;;;;;;6101507;23;20188;-82
2024/03/16 13:52:04;;;;;;;0.43;0.40;;;;;;;;;;6126432;23;20173;-82
2024/03/16 13:54:30;;;;;;;4.37;0.70;;;;;;;;;;6126400;23;20164;-82
2024/03/16 13:56:56;;;;;;;1.53;0.37;;;;;;;;;;6126711;23;20214;-82
2024/03/16 13:59:22;;;;;;;0.30;0.30;;;;;;;;;;6126196;23;20174;-83
2024/03/16 14:01:49;;;;;;;1.73;0.47;;;;;;;;;;6102847;23;20720;-82
2024/03/16 14:04:17;;;;;;;2.17;0.60;;;;;;;;;;6126074;23;20192;-83
2024/03/16 14:06:43;;;;;;;0.37;0.30;;;;;;;;;;6126858;23;20187;-82
2024/03/16 14:09:11;;;;;;;0.80;0.40;;;;;;;;;;6126310;23;20612;-84
2024/03/16 14:11:38;;;;;;;0.30;0.30;;;;;;;;;;6077542;23;20208;-82
2024/03/16 14:14:08;;;;;;;1.10;0.30;;;;;;;;;;6100184;23;20694;-84
2024/03/16 14:16:34;;;;;;;1.23;0.30;;;;;;;;;;6100547;23;20205;-83
2024/03/16 14:19:00;;;;;;;1.20;0.30;;;;;;;;;;6124462;23;20161;-84
2024/03/16 14:21:28;;;;;;;1.90;0.50;;;;;;;;;;6100088;23;20186;-83
2024/03/16 14:23:54;;;;;;;1.00;0.50;;;;;;;;;;6099899;23;20265;-83
2024/03/16 14:26:20;;;;;;;0.50;0.50;;;;;;;;;;6100448;23;20165;-83
2024/03/16 14:28:46;;;;;;;0.90;0.40;;;;;;;;;;6077979;23;20177;-83
2024/03/16 14:31:14;;;;;;;2.27;0.50;;;;;;;;;;6126099;23;20197;-83
2024/03/16 14:33:41;;;;;;;1.30;0.70;;;;;;;;;;6101356;23;20193;-84
2024/03/16 14:36:07;;;;;;;0.50;0.40;;;;;;;;;;6128103;23;20165;-83
2024/03/16 14:38:34;;;;;;;0.60;0.40;;;;;;;;;;6128800;23;20192;-82
2024/03/16 14:41:00;;;;;;;1.77;0.40;;;;;;;;;;6104252;23;20220;-83
2024/03/16 14:43:28;;;;;;;0.93;0.40;;;;;;;;;;6128485;23;20258;-82